createdAt,value
2022-09-25T00:01:59.647Z,100440.47
2022-09-25T00:04:29.825Z,100445.75
2022-09-25T00:06:59.363Z,100440.31
2022-09-25T00:09:28.910Z,100443.97
2022-09-25T00:12:01.077Z,100446.63
2022-09-25T00:14:30.639Z,100443.91
2022-09-25T00:17:00.246Z,100443.72
2022-09-25T00:19:42.421Z,100441.25
2022-09-25T00:22:12.035Z,100438.66
2022-09-25T00:24:41.563Z,100443.00
2022-09-25T00:27:14.313Z,100444.06
2022-09-25T00:29:44.429Z,100437.91
2022-09-25T00:32:15.333Z,100446.56
2022-09-25T00:34:44.896Z,100445.66
2022-09-25T00:37:14.451Z,100436.00
2022-09-25T00:39:43.980Z,100438.66
2022-09-25T00:42:17.422Z,100441.31
2022-09-25T00:44:59.255Z,100438.66
2022-09-25T00:47:48.300Z,100441.50
2022-09-25T00:50:25.746Z,100445.09
2022-09-25T00:52:56.093Z,100444.06
2022-09-25T00:55:26.108Z,100439.72
2022-09-25T00:57:59.455Z,100442.34
2022-09-25T01:00:28.999Z,100443.22
2022-09-25T01:02:59.341Z,100445.09
2022-09-25T01:05:31.594Z,100441.50
2022-09-25T01:08:03.419Z,100447.00
2022-09-25T01:10:33.089Z,100456.91
2022-09-25T01:13:05.472Z,100463.75
2022-09-25T01:15:40.777Z,100455.19
2022-09-25T01:18:18.556Z,100451.69
2022-09-25T01:21:17.982Z,100457.25
2022-09-25T01:24:13.922Z,100461.63
2022-09-25T01:27:14.949Z,100453.59
2022-09-25T01:29:48.702Z,100457.19
2022-09-25T01:32:22.663Z,100452.63
2022-09-25T01:34:57.109Z,100458.97
2022-09-25T01:37:29.901Z,100467.09
2022-09-25T01:40:04.725Z,100461.78
2022-09-25T01:42:39.755Z,100458.06
2022-09-25T01:45:16.711Z,100461.81
2022-09-25T01:47:48.981Z,100467.00
2022-09-25T01:50:22.180Z,100472.47
2022-09-25T01:52:55.066Z,100473.50
2022-09-25T01:55:27.273Z,100469.16
2022-09-25T01:58:00.299Z,100464.69
2022-09-25T02:00:32.682Z,100469.91
2022-09-25T02:03:12.155Z,100466.50
2022-09-25T02:05:44.991Z,100463.06
2022-09-25T02:08:17.836Z,100466.66
2022-09-25T02:10:51.245Z,100467.69
2022-09-25T02:13:21.616Z,100465.19
2022-09-25T02:15:56.229Z,100460.94
2022-09-25T02:18:40.060Z,100461.88
2022-09-25T02:21:16.465Z,100461.22
2022-09-25T02:23:52.440Z,100460.41
2022-09-25T02:26:27.434Z,100462.22
2022-09-25T02:28:57.433Z,100464.00
2022-09-25T02:31:31.783Z,100465.72
2022-09-25T02:34:01.400Z,100463.16
2022-09-25T02:36:32.363Z,100463.06
2022-09-25T02:39:02.604Z,100464.19
2022-09-25T02:41:46.176Z,100466.75
2022-09-25T02:44:20.780Z,100460.50
2022-09-25T02:47:02.273Z,100465.81
2022-09-25T02:49:40.284Z,100457.00
2022-09-25T02:52:13.680Z,100460.41
2022-09-25T02:54:48.308Z,100465.72
2022-09-25T02:57:22.590Z,100463.91
2022-09-25T02:59:55.705Z,100463.06
2022-09-25T03:02:29.166Z,100458.63
2022-09-25T03:04:59.329Z,100455.13
2022-09-25T03:07:29.205Z,100463.16
2022-09-25T03:09:58.266Z,100456.25
2022-09-25T03:12:28.214Z,100461.53
2022-09-25T03:14:57.719Z,100467.84
2022-09-25T03:17:30.074Z,100463.59
2022-09-25T03:19:59.635Z,100470.59
2022-09-25T03:22:29.222Z,100472.72
2022-09-25T03:24:58.793Z,100471.94
2022-09-25T03:27:30.012Z,100472.97
2022-09-25T03:30:00.118Z,100468.78
2022-09-25T03:32:32.370Z,100477.94
2022-09-25T03:35:01.922Z,100466.50
2022-09-25T03:37:32.192Z,100470.97
2022-09-25T03:40:01.863Z,100467.50
2022-09-25T03:42:32.303Z,100472.78
2022-09-25T03:45:02.351Z,100474.66
2022-09-25T03:47:34.579Z,100478.16
2022-09-25T03:50:04.145Z,100473.81
2022-09-25T03:52:34.076Z,100470.31
2022-09-25T03:55:04.543Z,100473.81
2022-09-25T03:57:34.087Z,100468.50
2022-09-25T04:00:04.060Z,100471.25
2022-09-25T04:02:44.441Z,100471.25
2022-09-25T04:05:14.289Z,100465.97
2022-09-25T04:07:43.829Z,100468.69
2022-09-25T04:10:14.766Z,100466.97
2022-09-25T04:12:44.430Z,100470.56
2022-09-25T04:15:14.878Z,100467.91
2022-09-25T04:17:47.499Z,100463.56
2022-09-25T04:20:17.098Z,100465.44
2022-09-25T04:22:46.653Z,100463.72
2022-09-25T04:25:19.570Z,100460.22
2022-09-25T04:27:53.916Z,100455.88
2022-09-25T04:30:23.696Z,100462.97
2022-09-25T04:33:08.411Z,100464.81
2022-09-25T04:35:37.955Z,100462.16
2022-09-25T04:38:07.684Z,100460.56
2022-09-25T04:40:37.294Z,100458.00
2022-09-25T04:43:09.070Z,100459.06
2022-09-25T04:45:38.896Z,100457.63
2022-09-25T04:48:11.477Z,100462.13
2022-09-25T04:50:40.995Z,100463.94
2022-09-25T04:53:10.571Z,100470.34
2022-09-25T04:55:40.414Z,100474.84
2022-09-25T04:58:09.986Z,100471.59
2022-09-25T05:00:40.893Z,100471.69
2022-09-25T05:03:13.160Z,100466.53
2022-09-25T05:05:42.706Z,100470.41
2022-09-25T05:08:12.771Z,100466.25
2022-09-25T05:10:42.898Z,100463.81
2022-09-25T05:13:13.432Z,100460.50
2022-09-25T05:15:43.057Z,100462.44
2022-09-25T05:18:19.035Z,100462.69
2022-09-25T05:20:48.664Z,100461.91
2022-09-25T05:23:18.721Z,100469.13
2022-09-25T05:25:55.204Z,100465.84
2022-09-25T05:28:24.851Z,100469.41
2022-09-25T05:30:54.552Z,100469.00
2022-09-25T05:33:26.692Z,100470.03
2022-09-25T05:35:56.257Z,100465.91
2022-09-25T05:38:25.828Z,100465.22
2022-09-25T05:40:55.729Z,100465.34
2022-09-25T05:43:25.458Z,100464.66
2022-09-25T05:45:58.073Z,100472.66
2022-09-25T05:48:30.376Z,100472.81
2022-09-25T05:51:00.718Z,100465.91
2022-09-25T05:53:30.959Z,100472.09
2022-09-25T05:56:02.254Z,100482.69
2022-09-25T05:58:33.453Z,100472.31
2022-09-25T06:01:03.754Z,100475.13
2022-09-25T06:03:36.130Z,100475.28
2022-09-25T06:06:05.667Z,100483.25
2022-09-25T06:08:35.910Z,100471.84
2022-09-25T06:11:06.017Z,100477.97
2022-09-25T06:13:37.057Z,100475.41
2022-09-25T06:16:07.598Z,100484.19
2022-09-25T06:18:40.084Z,100480.69
2022-09-25T06:21:09.591Z,100474.47
2022-09-25T06:23:39.184Z,100475.34
2022-09-25T06:26:10.322Z,100478.06
2022-09-25T06:28:39.864Z,100479.84
2022-09-25T06:31:10.072Z,100472.69
2022-09-25T06:33:43.820Z,100494.69
2022-09-25T06:36:13.338Z,100489.47
2022-09-25T06:38:42.829Z,100488.69
2022-09-25T06:41:12.471Z,100491.25
2022-09-25T06:43:42.017Z,100498.25
2022-09-25T06:46:11.639Z,100493.06
2022-09-25T06:48:43.917Z,100496.69
2022-09-25T06:51:13.837Z,100496.69
2022-09-25T06:53:43.353Z,100497.56
2022-09-25T06:56:12.868Z,100495.06
2022-09-25T06:58:42.497Z,100495.84
2022-09-25T07:01:13.732Z,100494.13
2022-09-25T07:03:46.501Z,100492.44
2022-09-25T07:06:17.438Z,100498.69
2022-09-25T07:08:48.047Z,100490.78
2022-09-25T07:11:20.223Z,100496.91
2022-09-25T07:13:53.101Z,100493.41
2022-09-25T07:16:23.489Z,100493.41
2022-09-25T07:18:57.209Z,100499.41
2022-09-25T07:21:29.458Z,100496.69
2022-09-25T07:23:59.408Z,100501.91
2022-09-25T07:26:30.645Z,100500.19
2022-09-25T07:29:01.554Z,100501.13
2022-09-25T07:31:32.982Z,100511.53
2022-09-25T07:34:09.346Z,100510.69
2022-09-25T07:36:42.622Z,100506.16
2022-09-25T07:39:17.496Z,100515.69
2022-09-25T07:41:48.068Z,100515.50
2022-09-25T07:44:28.434Z,100520.72
2022-09-25T07:46:59.447Z,100514.44
2022-09-25T07:49:32.088Z,100509.94
2022-09-25T07:52:01.910Z,100510.72
2022-09-25T07:54:31.449Z,100512.38
2022-09-25T07:57:00.992Z,100510.50
2022-09-25T07:59:30.537Z,100506.06
2022-09-25T08:02:01.326Z,100508.56
2022-09-25T08:04:33.473Z,100512.78
2022-09-25T08:07:03.458Z,100511.91
2022-09-25T08:09:33.069Z,100518.66
2022-09-25T08:12:02.791Z,100514.97
2022-09-25T08:14:32.910Z,100512.06
2022-09-25T08:17:02.583Z,100517.13
2022-09-25T08:19:34.853Z,100515.16
2022-09-25T08:22:04.410Z,100514.22
2022-09-25T08:24:34.057Z,100513.00
2022-09-25T08:27:03.590Z,100511.66
2022-09-25T08:29:33.691Z,100507.13
2022-09-25T08:32:03.712Z,100514.97
2022-09-25T08:34:41.165Z,100513.56
2022-09-25T08:37:12.192Z,100514.28
2022-09-25T08:39:43.036Z,100505.41
2022-09-25T08:42:19.697Z,100508.06
2022-09-25T08:45:21.110Z,100509.13
2022-09-25T08:48:05.260Z,100507.97
2022-09-25T08:50:38.160Z,100505.72
2022-09-25T08:53:10.143Z,100500.47
2022-09-25T08:55:58.276Z,100508.94
2022-09-25T08:58:29.789Z,100508.31
2022-09-25T09:01:03.327Z,100505.69
2022-09-25T09:03:34.884Z,100502.25
2022-09-25T09:06:08.836Z,100505.75
2022-09-25T09:08:41.073Z,100502.94
2022-09-25T09:11:14.431Z,100510.94
2022-09-25T09:13:47.272Z,100504.03
2022-09-25T09:16:21.032Z,100506.81
2022-09-25T09:18:50.621Z,100499.91
2022-09-25T09:21:27.261Z,100500.88
2022-09-25T09:24:03.668Z,100498.03
2022-09-25T09:26:56.380Z,100494.47
2022-09-25T09:29:41.378Z,100492.41
2022-09-25T09:32:23.815Z,100503.00
2022-09-25T09:35:08.873Z,100497.13
2022-09-25T09:37:49.944Z,100492.00
2022-09-25T09:40:47.459Z,100490.19
2022-09-25T09:43:31.718Z,100492.84
2022-09-25T09:46:06.137Z,100488.69
2022-09-25T09:48:40.752Z,100488.94
2022-09-25T09:51:14.044Z,100490.63
2022-09-25T09:53:49.287Z,100491.59
2022-09-25T09:56:22.099Z,100493.41
2022-09-25T09:58:54.305Z,100490.38
2022-09-25T10:01:42.426Z,100488.56
2022-09-25T10:04:14.591Z,100489.91
2022-09-25T10:06:47.680Z,100492.34
2022-09-25T10:09:20.609Z,100485.50
2022-09-25T10:11:57.027Z,100489.78
2022-09-25T10:14:30.443Z,100491.59
2022-09-25T10:17:01.133Z,100479.53
2022-09-25T10:19:32.032Z,100479.13
2022-09-25T10:22:05.597Z,100475.88
2022-09-25T10:25:01.753Z,100476.69
2022-09-25T10:27:33.666Z,100475.75
2022-09-25T10:30:10.083Z,100480.94
2022-09-25T10:32:57.723Z,100477.81
2022-09-25T10:35:31.072Z,100475.34
2022-09-25T10:38:03.081Z,100467.19
2022-09-25T10:40:38.458Z,100474.50
2022-09-25T10:43:17.396Z,100473.66
2022-09-25T10:45:48.916Z,100473.16
2022-09-25T10:48:42.294Z,100465.72
2022-09-25T10:51:18.236Z,100472.31
2022-09-25T10:53:48.476Z,100467.84
2022-09-25T10:56:24.357Z,100479.50
2022-09-25T10:58:57.601Z,100473.50
2022-09-25T11:01:35.379Z,100469.38
2022-09-25T11:04:09.776Z,100469.63
2022-09-25T11:06:39.957Z,100462.81
2022-09-25T11:09:11.797Z,100459.50
2022-09-25T11:11:44.198Z,100459.94
2022-09-25T11:14:22.314Z,100460.06
2022-09-25T11:16:55.383Z,100461.63
2022-09-25T11:19:29.184Z,100464.94
2022-09-25T11:22:08.119Z,100463.63
2022-09-25T11:24:47.187Z,100459.72
2022-09-25T11:27:22.471Z,100453.88
2022-09-25T11:30:00.645Z,100458.53
2022-09-25T11:32:35.036Z,100453.44
2022-09-25T11:35:22.657Z,100452.78
2022-09-25T11:37:59.069Z,100444.78
2022-09-25T11:40:47.866Z,100445.41
2022-09-25T11:43:25.884Z,100441.28
2022-09-25T11:45:58.288Z,100446.28
2022-09-25T11:48:33.011Z,100449.72
2022-09-25T11:51:09.776Z,100447.69
2022-09-25T11:53:46.231Z,100449.09
2022-09-25T11:56:27.653Z,100445.53
2022-09-25T11:59:13.769Z,100440.47
2022-09-25T12:01:46.759Z,100445.66
2022-09-25T12:04:48.859Z,100437.25
2022-09-25T12:07:28.564Z,100428.09
2022-09-25T12:10:15.008Z,100434.44
2022-09-25T12:12:52.431Z,100432.22
2022-09-25T12:15:30.245Z,100435.28
2022-09-25T12:18:05.217Z,100428.59
2022-09-25T12:20:40.988Z,100422.84
2022-09-25T12:23:18.078Z,100425.25
2022-09-25T12:26:02.631Z,100420.47
2022-09-25T12:28:42.269Z,100414.78
2022-09-25T12:31:24.822Z,100415.91
2022-09-25T12:33:59.275Z,100410.88
2022-09-25T12:36:36.425Z,100405.94
2022-09-25T12:39:16.669Z,100395.69
2022-09-25T12:41:51.991Z,100392.22
2022-09-25T12:44:27.397Z,100384.47
2022-09-25T12:47:03.955Z,100374.84
2022-09-25T12:49:37.687Z,100382.75
2022-09-25T12:52:13.683Z,100376.22
2022-09-25T12:54:51.052Z,100381.13
2022-09-25T12:57:24.032Z,100378.59
2022-09-25T12:59:57.276Z,100363.06
2022-09-25T13:02:37.140Z,100370.59
2022-09-25T13:05:11.962Z,100375.78
2022-09-25T13:07:45.515Z,100372.91
2022-09-25T13:10:27.439Z,100369.72
2022-09-25T13:13:00.568Z,100368.72
2022-09-25T13:15:32.760Z,100370.66
2022-09-25T13:18:06.266Z,100363.41
2022-09-25T13:20:52.832Z,100360.41
2022-09-25T13:23:37.651Z,100352.75
2022-09-25T13:26:13.810Z,100352.16
2022-09-25T13:28:50.773Z,100349.41
2022-09-25T13:31:25.879Z,100344.91
2022-09-25T13:34:00.400Z,100346.25
2022-09-25T13:36:40.085Z,100346.03
2022-09-25T13:39:32.406Z,100344.72
2022-09-25T13:42:06.613Z,100340.72
2022-09-25T13:44:52.587Z,100343.16
2022-09-25T13:47:54.890Z,100328.63
2022-09-25T13:50:33.155Z,100337.22
2022-09-25T13:53:25.398Z,100326.31
2022-09-25T13:56:14.971Z,100328.00
2022-09-25T13:59:07.797Z,100322.56
2022-09-25T14:01:39.824Z,100321.22
2022-09-25T14:04:14.192Z,100323.19
2022-09-25T14:06:48.052Z,100320.38
2022-09-25T14:09:19.942Z,100316.59
2022-09-25T14:11:55.101Z,100317.47
2022-09-25T14:14:29.800Z,100327.03
2022-09-25T14:17:01.083Z,100315.28
2022-09-25T14:19:34.035Z,100300.97
2022-09-25T14:22:07.212Z,100309.31
2022-09-25T14:24:36.908Z,100311.00
2022-09-25T14:27:06.570Z,100322.91
2022-09-25T14:29:43.279Z,100317.94
2022-09-25T14:32:50.378Z,100311.16
2022-09-25T14:35:28.958Z,100308.63
2022-09-25T14:38:15.093Z,100305.94
2022-09-25T14:40:55.619Z,100294.28
2022-09-25T14:43:54.648Z,100301.81
2022-09-25T14:46:25.072Z,100305.94
2022-09-25T14:48:57.224Z,100303.41
2022-09-25T14:51:29.701Z,100305.81
2022-09-25T14:54:05.515Z,100305.56
2022-09-25T14:56:37.513Z,100309.19
2022-09-25T14:59:10.522Z,100300.44
2022-09-25T15:01:47.670Z,100299.41
2022-09-25T15:04:28.710Z,100299.28
2022-09-25T15:07:06.039Z,100300.34
2022-09-25T15:09:47.434Z,100295.72
2022-09-25T15:12:23.527Z,100295.22
2022-09-25T15:15:08.361Z,100297.13
2022-09-25T15:17:45.117Z,100295.69
2022-09-25T15:20:17.162Z,100290.59
2022-09-25T15:22:50.218Z,100299.78
2022-09-25T15:25:26.394Z,100292.22
2022-09-25T15:27:56.124Z,100294.16
2022-09-25T15:30:28.519Z,100289.06
2022-09-25T15:33:00.905Z,100290.38
2022-09-25T15:35:32.689Z,100285.16
2022-09-25T15:38:07.913Z,100281.03
2022-09-25T15:40:40.272Z,100279.44
2022-09-25T15:43:16.102Z,100277.88
2022-09-25T15:45:48.371Z,100275.19
2022-09-25T15:48:28.222Z,100271.69
2022-09-25T15:50:58.796Z,100272.00
2022-09-25T15:53:32.102Z,100271.38
2022-09-25T15:56:14.671Z,100266.38
2022-09-25T15:58:48.932Z,100265.78
2022-09-25T16:01:33.868Z,100266.94
2022-09-25T16:04:16.350Z,100275.16
2022-09-25T16:06:49.847Z,100281.47
2022-09-25T16:09:33.112Z,100280.69
2022-09-25T16:12:30.464Z,100270.91
2022-09-25T16:15:02.249Z,100273.56
2022-09-25T16:17:36.023Z,100278.03
2022-09-25T16:20:10.019Z,100278.16
2022-09-25T16:22:49.324Z,100276.69
2022-09-25T16:25:22.158Z,100274.34
2022-09-25T16:27:55.312Z,100274.91
2022-09-25T16:30:27.143Z,100271.72
2022-09-25T16:32:58.813Z,100278.25
2022-09-25T16:35:56.831Z,100283.16
2022-09-25T16:38:29.667Z,100282.72
2022-09-25T16:41:06.866Z,100291.47
2022-09-25T16:43:39.743Z,100289.13
2022-09-25T16:46:16.518Z,100284.28
2022-09-25T16:48:47.476Z,100280.09
2022-09-25T16:51:22.370Z,100285.84
2022-09-25T16:53:52.484Z,100290.78
2022-09-25T16:56:25.912Z,100292.13
2022-09-25T16:58:59.264Z,100288.06
2022-09-25T17:01:30.527Z,100291.13
2022-09-25T17:04:00.385Z,100291.56
2022-09-25T17:06:32.648Z,100299.00
2022-09-25T17:09:02.501Z,100300.50
2022-09-25T17:11:32.065Z,100296.53
2022-09-25T17:14:04.204Z,100305.66
2022-09-25T17:16:33.850Z,100305.44
2022-09-25T17:19:03.501Z,100296.16
2022-09-25T17:21:34.053Z,100300.00
2022-09-25T17:24:04.165Z,100292.53
2022-09-25T17:26:33.758Z,100292.66
2022-09-25T17:29:06.085Z,100286.88
2022-09-25T17:31:36.999Z,100287.91
2022-09-25T17:34:12.257Z,100287.38
2022-09-25T17:36:41.924Z,100278.88
2022-09-25T17:39:12.004Z,100282.69
2022-09-25T17:41:42.277Z,100291.22
2022-09-25T17:44:16.784Z,100289.91
2022-09-25T17:46:46.670Z,100296.47
2022-09-25T17:49:16.484Z,100290.47
2022-09-25T17:51:47.308Z,100292.38
2022-09-25T17:54:18.052Z,100291.84
2022-09-25T17:56:50.296Z,100300.09
2022-09-25T17:59:24.962Z,100290.81
2022-09-25T18:01:55.540Z,100293.56
2022-09-25T18:04:30.310Z,100294.78
2022-09-25T18:07:01.722Z,100296.06
2022-09-25T18:09:38.163Z,100288.38
2022-09-25T18:12:16.386Z,100295.66
2022-09-25T18:14:54.445Z,100298.50
2022-09-25T18:17:25.744Z,100294.34
2022-09-25T18:20:14.584Z,100295.38
2022-09-25T18:22:45.858Z,100299.28
2022-09-25T18:25:17.008Z,100295.09
2022-09-25T18:27:47.976Z,100295.41
2022-09-25T18:30:23.879Z,100293.88
2022-09-25T18:32:55.033Z,100298.59
2022-09-25T18:35:33.645Z,100298.88
2022-09-25T18:38:04.947Z,100294.81
2022-09-25T18:40:39.175Z,100292.47
2022-09-25T18:43:11.019Z,100283.72
2022-09-25T18:45:54.226Z,100289.22
2022-09-25T18:48:24.218Z,100285.03
2022-09-25T18:50:53.767Z,100285.44
2022-09-25T18:53:24.632Z,100292.59
2022-09-25T18:55:58.176Z,100291.19
2022-09-25T18:58:27.874Z,100285.47
2022-09-25T19:01:00.340Z,100287.41
2022-09-25T19:03:30.351Z,100286.16
2022-09-25T19:06:03.091Z,100286.47
2022-09-25T19:08:34.443Z,100284.06
2022-09-25T19:11:06.631Z,100275.63
2022-09-25T19:13:38.913Z,100279.41
2022-09-25T19:16:13.140Z,100287.69
2022-09-25T19:18:44.041Z,100280.09
2022-09-25T19:21:16.095Z,100274.22
2022-09-25T19:23:48.422Z,100277.13
2022-09-25T19:26:22.486Z,100274.94
2022-09-25T19:28:52.869Z,100276.13
2022-09-25T19:31:27.157Z,100274.50
2022-09-25T19:33:58.314Z,100273.91
2022-09-25T19:36:31.118Z,100274.28
2022-09-25T19:39:03.283Z,100279.06
2022-09-25T19:41:36.358Z,100276.66
2022-09-25T19:44:13.628Z,100273.44
2022-09-25T19:46:48.848Z,100275.56
2022-09-25T19:49:20.397Z,100269.75
2022-09-25T19:51:49.985Z,100267.34
2022-09-25T19:54:19.538Z,100268.47
2022-09-25T19:56:49.144Z,100258.97
2022-09-25T19:59:19.013Z,100254.81
2022-09-25T20:01:51.281Z,100253.16
2022-09-25T20:04:20.889Z,100252.66
2022-09-25T20:06:50.480Z,100261.31
2022-09-25T20:09:20.110Z,100257.44
2022-09-25T20:11:49.667Z,100255.81
2022-09-25T20:14:25.234Z,100257.84
2022-09-25T20:16:59.144Z,100253.66
2022-09-25T20:19:30.747Z,100250.66
2022-09-25T20:22:02.159Z,100243.03
2022-09-25T20:24:33.452Z,100240.56
2022-09-25T20:27:04.401Z,100244.28
2022-09-25T20:29:34.361Z,100245.53
2022-09-25T20:32:06.688Z,100249.28
2022-09-25T20:34:36.293Z,100245.09
2022-09-25T20:37:06.720Z,100240.06
2022-09-25T20:39:36.597Z,100236.69
2022-09-25T20:42:07.716Z,100237.81
2022-09-25T20:44:38.822Z,100240.66
2022-09-25T20:47:12.692Z,100239.97
2022-09-25T20:49:44.432Z,100238.41
2022-09-25T20:52:16.001Z,100233.31
2022-09-25T20:54:46.624Z,100230.13
2022-09-25T20:57:16.248Z,100232.16
2022-09-25T20:59:45.942Z,100227.84
2022-09-25T21:02:18.485Z,100221.03
2022-09-25T21:04:51.158Z,100219.47
2022-09-25T21:07:20.860Z,100223.34
2022-09-25T21:09:50.625Z,100217.28
2022-09-25T21:12:21.610Z,100218.31
2022-09-25T21:14:53.753Z,100217.59
2022-09-25T21:17:28.049Z,100220.38
2022-09-25T21:19:58.608Z,100215.41
2022-09-25T21:22:28.512Z,100211.28
2022-09-25T21:24:58.046Z,100213.22
2022-09-25T21:27:27.683Z,100207.09
2022-09-25T21:29:57.228Z,100206.22
2022-09-25T21:32:31.548Z,100201.94
2022-09-25T21:35:01.104Z,100203.94
2022-09-25T21:37:30.921Z,100195.19
2022-09-25T21:40:00.461Z,100198.84
2022-09-25T21:42:30.079Z,100199.91
2022-09-25T21:45:01.123Z,100197.47
2022-09-25T21:47:33.320Z,100197.69
2022-09-25T21:50:02.886Z,100200.53
2022-09-25T21:52:32.460Z,100202.31
2022-09-25T21:55:03.428Z,100192.78
2022-09-25T21:57:33.233Z,100199.00
2022-09-25T22:00:03.080Z,100182.41
2022-09-25T22:02:36.960Z,100187.03
2022-09-25T22:05:07.049Z,100187.13
2022-09-25T22:07:36.783Z,100190.81
2022-09-25T22:10:07.102Z,100178.63
2022-09-25T22:12:36.716Z,100176.94
2022-09-25T22:15:06.703Z,100182.47
2022-09-25T22:17:38.856Z,100180.03
2022-09-25T22:20:10.456Z,100177.50
2022-09-25T22:22:40.080Z,100175.78
2022-09-25T22:25:10.951Z,100169.81
2022-09-25T22:27:40.507Z,100167.31
2022-09-25T22:30:11.731Z,100165.75
2022-09-25T22:32:43.872Z,100169.41
2022-09-25T22:35:13.413Z,100164.91
2022-09-25T22:37:42.947Z,100164.91
2022-09-25T22:40:12.882Z,100161.44
2022-09-25T22:42:42.490Z,100162.28
2022-09-25T22:45:12.820Z,100166.69
2022-09-25T22:47:44.941Z,100151.88
2022-09-25T22:50:14.515Z,100146.59
2022-09-25T22:52:44.094Z,100143.13
2022-09-25T22:55:13.653Z,100135.28
2022-09-25T22:57:43.238Z,100138.69
2022-09-25T23:00:14.217Z,100134.38
2022-09-25T23:02:46.433Z,100126.75
2022-09-25T23:05:16.185Z,100139.00
2022-09-25T23:07:45.923Z,100133.75
2022-09-25T23:10:15.473Z,100127.56
2022-09-25T23:12:45.027Z,100119.78
2022-09-25T23:15:14.594Z,100112.97
2022-09-25T23:17:46.708Z,100121.56
2022-09-25T23:20:16.257Z,100120.72
2022-09-25T23:22:45.803Z,100117.16
2022-09-25T23:25:15.371Z,100111.97
2022-09-25T23:27:45.013Z,100113.75
2022-09-25T23:30:15.238Z,100112.81
2022-09-25T23:32:47.618Z,100108.91
2022-09-25T23:35:17.309Z,100100.22
2022-09-25T23:37:47.156Z,100104.66
2022-09-25T23:40:16.747Z,100095.91
2022-09-25T23:42:46.383Z,100095.75
2022-09-25T23:45:15.906Z,100092.41
2022-09-25T23:47:48.112Z,100092.34
2022-09-25T23:50:17.662Z,100084.56
2022-09-25T23:52:47.271Z,100083.72
2022-09-25T23:55:16.927Z,100081.16
2022-09-25T23:57:46.458Z,100080.16
